Time;durP1;ratioP1;P1;durP2;ratioP2;P2;SDS_P1;SDS_P2;PMS_P1;PMS_P2;Temp;Humidity;BMP_temperature;BMP_pressure;BME280_temperature;BME280_humidity;BME280_pressure;Samples;Min_cycle;Max_cycle;Signal;HPM_P1;HPM_P2
2024/01/12 00:02:01;;;;;;;19.40;9.73;;;-1.60;1.00;;;;;;5112766;28;20434;-71
2024/01/12 00:04:28;;;;;;;22.00;10.45;;;-1.70;99.90;;;;;;5104807;28;20424;-71
2024/01/12 00:06:55;;;;;;;19.48;10.88;;;-1.70;99.90;;;;;;5110394;28;20440;-71
2024/01/12 00:09:22;;;;;;;18.73;11.53;;;-1.80;99.90;;;;;;5097940;28;20428;-71
2024/01/12 00:11:50;;;;;;;21.30;11.05;;;-1.80;99.90;;;;;;5117269;27;20500;-71
2024/01/12 00:14:18;;;;;;;18.95;10.68;;;-1.80;99.90;;;;;;5118157;28;20429;-71
2024/01/12 00:16:48;;;;;;;16.98;10.00;;;-1.80;99.90;;;;;;5117993;28;20523;-70
2024/01/12 00:19:15;;;;;;;19.77;11.38;;;-1.70;99.90;;;;;;5104308;28;20536;-70
2024/01/12 00:21:43;;;;;;;21.20;11.32;;;-1.80;99.90;;;;;;5117414;28;20729;-70
2024/01/12 00:24:10;;;;;;;20.30;10.13;;;-1.80;1.00;;;;;;5117759;28;20441;-70
2024/01/12 00:26:37;;;;;;;18.65;10.43;;;-1.90;34.70;;;;;;5117844;28;20495;-71
2024/01/12 00:29:04;;;;;;;19.67;11.05;;;-1.90;1.00;;;;;;5117669;28;20439;-71
2024/01/12 00:31:33;;;;;;;20.83;11.48;;;-1.90;1.00;;;;;;5116856;28;20439;-71
2024/01/12 00:34:00;;;;;;;17.25;10.23;;;-2.00;1.00;;;;;;5100325;28;20488;-71
2024/01/12 00:36:27;;;;;;;19.00;10.30;;;-1.90;1.00;;;;;;5117369;28;20439;-71
2024/01/12 00:38:54;;;;;;;15.90;9.00;;;-1.70;1.00;;;;;;5114339;28;20498;-70
2024/01/12 00:41:22;;;;;;;17.65;10.40;;;-1.80;1.00;;;;;;5098386;28;20433;-71
2024/01/12 00:43:49;;;;;;;18.02;10.75;;;-1.90;99.90;;;;;;5118706;28;20467;-71
2024/01/12 00:46:16;;;;;;;18.30;10.82;;;-1.90;1.60;;;;;;5118145;28;20443;-71
2024/01/12 00:48:45;;;;;;;20.10;11.68;;;-1.90;1.00;;;;;;5097439;28;20438;-71
2024/01/12 00:51:12;;;;;;;21.05;10.93;;;-1.90;1.00;;;;;;5098673;28;20551;-70
2024/01/12 00:53:39;;;;;;;17.73;10.20;;;-1.90;1.00;;;;;;5104599;28;20734;-70
2024/01/12 00:56:06;;;;;;;16.85;9.40;;;-1.90;1.00;;;;;;5115996;28;20933;-70
2024/01/12 00:58:35;;;;;;;21.40;10.73;;;-1.90;1.00;;;;;;5095868;28;20438;-70
2024/01/12 01:01:03;;;;;;;18.02;10.35;;;-1.90;99.90;;;;;;5105827;28;20439;-72
2024/01/12 01:03:30;;;;;;;18.67;10.57;;;-1.90;99.90;;;;;;5096524;28;20438;-70
2024/01/12 01:05:58;;;;;;;19.20;11.10;;;-1.90;99.90;;;;;;5114912;28;20437;-71
2024/01/12 01:08:25;;;;;;;20.85;11.30;;;-2.00;1.00;;;;;;5110506;28;20408;-71
2024/01/12 01:10:52;;;;;;;21.23;10.57;;;-2.10;1.00;;;;;;5112076;28;20421;-71
2024/01/12 01:13:19;;;;;;;17.75;9.80;;;-2.20;99.90;;;;;;5111507;27;20443;-71
2024/01/12 01:15:47;;;;;;;19.25;11.35;;;-2.30;1.00;;;;;;5110843;28;20420;-71
2024/01/12 01:18:15;;;;;;;20.05;11.90;;;-2.30;1.00;;;;;;5113068;28;20497;-71
2024/01/12 01:20:42;;;;;;;20.98;10.80;;;-2.30;1.00;;;;;;5108860;28;20428;-71
2024/01/12 01:23:10;;;;;;;16.65;9.52;;;-2.30;58.70;;;;;;5104123;28;20483;-71
2024/01/12 01:25:38;;;;;;;20.40;10.90;;;-2.20;99.90;;;;;;5110155;28;20431;-71
2024/01/12 01:28:05;;;;;;;17.70;10.63;;;-2.30;99.90;;;;;;5110207;28;20934;-71
2024/01/12 01:30:32;;;;;;;17.80;9.93;;;-2.30;99.90;;;;;;5111640;27;20416;-70
2024/01/12 01:32:59;;;;;;;20.35;10.68;;;-2.40;99.90;;;;;;5105744;28;20443;-71
2024/01/12 01:35:26;;;;;;;21.35;10.70;;;-2.40;1.00;;;;;;5111355;28;20845;-71
2024/01/12 01:37:53;;;;;;;20.55;11.90;;;-2.50;99.90;;;;;;5106309;28;20424;-71
2024/01/12 01:40:22;;;;;;;17.17;10.85;;;-2.40;1.00;;;;;;5107021;28;20448;-71
2024/01/12 01:42:49;;;;;;;18.75;10.38;;;-2.30;1.00;;;;;;5106338;28;20742;-71
2024/01/12 01:45:17;;;;;;;16.45;10.18;;;-2.20;1.00;;;;;;5110083;28;20488;-70
2024/01/12 01:47:45;;;;;;;20.57;9.60;;;-2.10;99.90;;;;;;5106363;27;20736;-72
2024/01/12 01:50:13;;;;;;;19.67;10.20;;;-2.00;1.00;;;;;;5109682;28;20412;-71
2024/01/12 01:52:42;;;;;;;20.23;10.55;;;-2.00;50.30;;;;;;5112202;28;20447;-71
2024/01/12 01:55:10;;;;;;;20.00;10.70;;;-2.10;1.00;;;;;;5112952;28;20424;-70
2024/01/12 01:57:42;;;;;;;16.80;9.90;;;-2.10;1.00;;;;;;5113738;27;20424;-70
2024/01/12 02:00:10;;;;;;;19.05;10.25;;;-2.10;99.90;;;;;;5112760;28;20435;-70
2024/01/12 02:02:37;;;;;;;20.27;11.27;;;-2.10;99.90;;;;;;5115267;28;20485;-71
2024/01/12 02:05:08;;;;;;;20.40;10.07;;;-2.20;1.00;;;;;;5112691;27;20412;-72
2024/01/12 02:07:38;;;;;;;17.45;10.15;;;-2.20;99.90;;;;;;5114389;28;20503;-72
2024/01/12 02:10:06;;;;;;;19.90;11.35;;;-2.00;1.00;;;;;;5114413;28;20431;-71
2024/01/12 02:12:35;;;;;;;19.10;10.10;;;-2.00;1.00;;;;;;5112361;28;20442;-72
2024/01/12 02:15:07;;;;;;;22.70;10.80;;;-2.00;1.00;;;;;;5104455;28;20502;-71
2024/01/12 02:17:34;;;;;;;18.87;11.17;;;-2.20;99.90;;;;;;5110845;28;20418;-72
2024/01/12 02:20:01;;;;;;;16.48;9.25;;;-2.30;1.00;;;;;;5111783;27;20888;-72
2024/01/12 02:22:30;;;;;;;18.20;10.45;;;-2.20;99.90;;;;;;5114325;28;20492;-72
2024/01/12 02:24:57;;;;;;;19.50;10.40;;;-2.10;99.90;;;;;;5115944;28;20463;-71
2024/01/12 02:27:24;;;;;;;21.70;10.40;;;-2.20;1.00;;;;;;5108825;28;20428;-72
2024/01/12 02:29:52;;;;;;;17.63;10.57;;;-2.20;99.90;;;;;;5112421;28;20710;-72
2024/01/12 02:32:19;;;;;;;18.88;10.18;;;-2.20;1.00;;;;;;5102552;28;20877;-72
2024/01/12 02:34:46;;;;;;;16.40;9.45;;;-2.30;1.00;;;;;;5114784;28;20416;-72
2024/01/12 02:37:13;;;;;;;16.20;9.23;;;-2.30;1.00;;;;;;5106217;27;20803;-72
2024/01/12 02:39:42;;;;;;;15.90;10.88;;;-2.30;1.00;;;;;;5106946;28;20439;-71
2024/01/12 02:42:09;;;;;;;23.77;13.03;;;-2.30;99.90;;;;;;5115041;28;20689;-72
2024/01/12 02:44:36;;;;;;;19.30;10.05;;;-2.40;99.90;;;;;;5114803;28;20412;-71
2024/01/12 02:47:03;;;;;;;20.23;10.90;;;-2.50;99.90;;;;;;5114966;28;20755;-72
2024/01/12 02:49:30;;;;;;;19.65;10.48;;;-2.50;1.00;;;;;;5115830;28;20657;-71
2024/01/12 02:51:57;;;;;;;17.30;9.65;;;-2.40;1.00;;;;;;5101222;28;20448;-72
2024/01/12 02:54:24;;;;;;;20.40;9.95;;;-2.30;1.00;;;;;;5100244;28;20449;-72
2024/01/12 02:56:52;;;;;;;18.15;10.80;;;-2.30;1.00;;;;;;5113880;28;20443;-71
2024/01/12 02:59:19;;;;;;;16.13;9.98;;;-2.30;1.00;;;;;;5114708;28;20440;-72
2024/01/12 03:01:47;;;;;;;17.42;9.48;;;-2.30;99.90;;;;;;5112835;28;20435;-72
2024/01/12 03:04:14;;;;;;;19.70;10.20;;;-2.30;99.90;;;;;;5114173;28;20440;-72
2024/01/12 03:06:41;;;;;;;16.55;8.65;;;-2.30;1.00;;;;;;5116203;28;20435;-72
2024/01/12 03:09:10;;;;;;;19.00;10.63;;;-2.30;1.00;;;;;;5112944;28;20439;-72
2024/01/12 03:11:37;;;;;;;16.05;9.57;;;-2.30;1.00;;;;;;5106828;28;20433;-72
2024/01/12 03:14:05;;;;;;;18.50;11.20;;;-2.30;1.00;;;;;;5107344;28;20823;-72
2024/01/12 03:16:32;;;;;;;18.42;11.15;;;-2.20;1.00;;;;;;5114574;27;20432;-72
2024/01/12 03:18:59;;;;;;;13.02;8.60;;;-2.20;99.90;;;;;;5113694;28;20500;-71
2024/01/12 03:21:26;;;;;;;18.98;10.60;;;-2.30;8.70;;;;;;5114708;28;20497;-72
2024/01/12 03:23:53;;;;;;;20.52;10.60;;;-2.30;99.90;;;;;;5097778;28;20426;-71
2024/01/12 03:26:20;;;;;;;19.80;10.95;;;-2.30;1.00;;;;;;5096394;28;20424;-72
2024/01/12 03:28:47;;;;;;;18.85;10.23;;;-2.30;1.00;;;;;;5104625;28;20509;-72
2024/01/12 03:31:16;;;;;;;20.33;10.15;;;-2.20;99.90;;;;;;5112461;28;20424;-72
2024/01/12 03:33:43;;;;;;;16.02;10.88;;;-2.10;83.60;;;;;;5094178;28;20457;-71
2024/01/12 03:36:11;;;;;;;17.98;10.57;;;-2.10;99.90;;;;;;5103395;28;20439;-72
2024/01/12 03:38:38;;;;;;;22.98;10.98;;;-2.10;18.90;;;;;;5110460;28;20412;-72
2024/01/12 03:41:06;;;;;;;17.57;10.00;;;-2.10;1.00;;;;;;5109647;28;20416;-72
2024/01/12 03:43:33;;;;;;;15.93;8.77;;;-2.20;1.00;;;;;;5113016;28;20440;-72
2024/01/12 03:46:00;;;;;;;19.70;9.43;;;-2.30;99.90;;;;;;5119991;28;20420;-72
2024/01/12 03:48:28;;;;;;;17.25;10.98;;;-2.40;99.90;;;;;;5103476;28;20441;-72
2024/01/12 03:50:55;;;;;;;19.67;10.32;;;-2.40;59.70;;;;;;5105919;28;20446;-72
2024/01/12 03:53:22;;;;;;;19.08;10.95;;;-2.40;1.00;;;;;;5120596;28;20434;-71
2024/01/12 03:55:49;;;;;;;15.80;10.15;;;-2.30;1.00;;;;;;5120006;28;20570;-71
2024/01/12 03:58:17;;;;;;;20.15;12.27;;;-2.30;99.90;;;;;;5121358;28;20438;-71
2024/01/12 04:00:44;;;;;;;19.25;11.32;;;-2.10;99.90;;;;;;5119178;28;20443;-71
2024/01/12 04:03:11;;;;;;;22.95;12.68;;;-2.20;1.00;;;;;;5119842;28;20435;-71
2024/01/12 04:05:39;;;;;;;24.75;12.30;;;-2.10;99.90;;;;;;5119675;28;20441;-72
2024/01/12 04:08:06;;;;;;;23.25;11.88;;;-2.10;1.00;;;;;;5118292;28;20415;-72
2024/01/12 04:10:34;;;;;;;20.42;12.30;;;-2.10;1.00;;;;;;5119069;28;20717;-71
2024/01/12 04:13:06;;;;;;;22.30;13.73;;;-2.20;1.00;;;;;;5117417;28;20431;-72
2024/01/12 04:15:33;;;;;;;19.63;13.10;;;-2.40;1.00;;;;;;5121929;28;20420;-72
2024/01/12 04:18:01;;;;;;;22.35;12.45;;;-2.40;99.90;;;;;;5111538;28;20717;-71
2024/01/12 04:20:28;;;;;;;21.25;12.77;;;-2.40;1.00;;;;;;5117661;27;20429;-72
2024/01/12 04:22:56;;;;;;;17.88;11.25;;;-2.40;1.00;;;;;;5110016;28;20425;-72
2024/01/12 04:25:24;;;;;;;22.85;12.05;;;-2.40;1.00;;;;;;5122391;27;20420;-72
2024/01/12 04:27:51;;;;;;;23.27;12.73;;;-2.40;99.90;;;;;;5111173;28;20709;-72
2024/01/12 04:30:18;;;;;;;18.15;10.93;;;-2.40;1.00;;;;;;5109122;28;20428;-72
2024/01/12 04:32:45;;;;;;;18.50;11.02;;;-2.40;99.90;;;;;;5102169;28;20518;-72
2024/01/12 04:35:12;;;;;;;22.02;13.02;;;-2.50;99.90;;;;;;5115321;28;20413;-72
2024/01/12 04:37:39;;;;;;;19.02;10.95;;;-2.50;1.00;;;;;;5115093;27;20736;-71
2024/01/12 04:40:08;;;;;;;18.87;11.70;;;-2.40;1.00;;;;;;5105762;28;20424;-72
2024/01/12 04:42:35;;;;;;;26.08;14.55;;;-2.40;1.00;;;;;;5121190;28;20431;-72
2024/01/12 04:45:02;;;;;;;28.37;17.87;;;-2.40;1.00;;;;;;5120721;27;20856;-72
2024/01/12 04:47:29;;;;;;;30.08;18.48;;;-2.70;33.20;;;;;;5120757;28;20428;-72
2024/01/12 04:49:56;;;;;;;34.97;20.25;;;-2.80;99.90;;;;;;5110821;28;20444;-72
2024/01/12 04:52:23;;;;;;;29.80;17.83;;;-3.10;99.90;;;;;;5103936;28;20439;-72
2024/01/12 04:54:50;;;;;;;28.20;18.10;;;-3.30;1.00;;;;;;5100265;28;20441;-73
2024/01/12 04:57:19;;;;;;;29.50;19.40;;;-3.40;1.00;;;;;;5108354;28;20440;-73
2024/01/12 04:59:46;;;;;;;28.90;16.60;;;-3.40;1.00;;;;;;5115210;28;20432;-73
2024/01/12 05:02:13;;;;;;;33.47;19.40;;;-3.10;1.00;;;;;;5116892;28;20454;-73
2024/01/12 05:04:41;;;;;;;34.10;19.73;;;-2.90;1.00;;;;;;5114570;28;20444;-72
2024/01/12 05:07:08;;;;;;;38.35;20.65;;;-2.90;1.00;;;;;;5101081;28;20489;-73
2024/01/12 05:09:35;;;;;;;29.93;19.00;;;-3.00;1.00;;;;;;5118191;28;20842;-72
2024/01/12 05:12:04;;;;;;;29.20;18.27;;;-3.00;1.00;;;;;;5117146;28;20833;-73
2024/01/12 05:14:33;;;;;;;31.13;18.23;;;-3.10;1.00;;;;;;5112546;28;20839;-72
2024/01/12 05:17:00;;;;;;;34.58;19.40;;;-3.20;1.00;;;;;;5097678;28;20692;-73
2024/01/12 05:19:27;;;;;;;34.10;19.50;;;-3.40;1.00;;;;;;5104308;28;20439;-72
2024/01/12 05:21:54;;;;;;;33.08;19.15;;;-3.30;1.00;;;;;;5123287;28;20439;-73
2024/01/12 05:24:21;;;;;;;40.42;21.67;;;-3.10;1.00;;;;;;5114274;28;20540;-72
2024/01/12 05:26:48;;;;;;;33.65;19.88;;;-3.10;1.00;;;;;;5096942;28;20508;-72
2024/01/12 05:29:15;;;;;;;34.38;19.17;;;-3.00;1.00;;;;;;5113355;28;20519;-72
2024/01/12 05:31:45;;;;;;;34.35;20.10;;;-3.10;1.00;;;;;;5109120;28;20540;-72
2024/01/12 05:34:12;;;;;;;34.03;18.23;;;-3.10;1.00;;;;;;5108332;28;20440;-72
2024/01/12 05:36:39;;;;;;;35.55;19.77;;;-3.10;1.00;;;;;;5113748;28;20465;-72
2024/01/12 05:39:06;;;;;;;32.97;19.50;;;-3.10;1.00;;;;;;5114623;28;20833;-72
2024/01/12 05:41:33;;;;;;;26.77;15.50;;;-3.10;1.00;;;;;;5116939;28;20524;-72
2024/01/12 05:44:02;;;;;;;27.67;14.73;;;-3.30;1.00;;;;;;5111099;28;20852;-73
2024/01/12 05:46:29;;;;;;;26.00;15.82;;;-3.30;1.00;;;;;;5112393;28;20532;-72
2024/01/12 05:49:00;;;;;;;26.67;15.05;;;-3.30;1.00;;;;;;5103946;28;20437;-72
2024/01/12 05:51:27;;;;;;;30.15;16.50;;;-3.40;1.00;;;;;;5099206;28;20476;-72
2024/01/12 05:53:54;;;;;;;24.88;16.10;;;-3.40;1.00;;;;;;5096749;28;20439;-72
2024/01/12 05:56:21;;;;;;;27.90;15.93;;;-3.40;1.00;;;;;;5113834;28;20432;-72
2024/01/12 05:58:48;;;;;;;26.58;14.70;;;-3.40;1.00;;;;;;5113655;28;20423;-72
2024/01/12 06:01:15;;;;;;;24.38;15.10;;;-3.50;1.00;;;;;;5111274;28;20438;-72
2024/01/12 06:03:42;;;;;;;25.93;15.53;;;-3.60;1.00;;;;;;5098519;28;20432;-73
2024/01/12 06:06:11;;;;;;;26.10;14.50;;;-3.70;1.00;;;;;;5114211;28;20836;-72
2024/01/12 06:08:38;;;;;;;22.70;14.07;;;-3.70;1.00;;;;;;5113340;28;20424;-72
2024/01/12 06:11:05;;;;;;;21.33;13.37;;;-3.60;1.00;;;;;;5110590;28;20907;-73
2024/01/12 06:13:33;;;;;;;23.65;15.25;;;-3.60;1.00;;;;;;5095003;28;20672;-72
2024/01/12 06:16:00;;;;;;;25.58;15.10;;;-3.50;1.00;;;;;;5113038;28;20438;-72
2024/01/12 06:18:27;;;;;;;24.80;14.23;;;-3.40;1.00;;;;;;5119990;27;20487;-73
2024/01/12 06:20:54;;;;;;;24.73;14.07;;;-3.40;1.00;;;;;;5109610;27;20434;-72
2024/01/12 06:23:22;;;;;;;23.13;12.88;;;-3.40;1.00;;;;;;5092718;28;20434;-73
2024/01/12 06:25:50;;;;;;;25.85;14.05;;;-3.30;1.00;;;;;;5107186;28;20451;-72
2024/01/12 06:28:17;;;;;;;24.33;14.53;;;-3.40;1.00;;;;;;5113856;28;20424;-72
2024/01/12 06:30:44;;;;;;;26.20;14.93;;;-3.40;1.00;;;;;;5112591;28;20427;-72
2024/01/12 06:33:14;;;;;;;25.38;15.20;;;-3.40;1.00;;;;;;5106767;27;20426;-72
2024/01/12 06:35:41;;;;;;;23.27;15.20;;;-3.40;1.00;;;;;;5114772;27;20420;-72
2024/01/12 06:38:10;;;;;;;30.15;14.95;;;-3.40;99.90;;;;;;5110068;28;20429;-72
2024/01/12 06:40:40;;;;;;;22.60;13.90;;;-3.50;1.00;;;;;;5093793;28;20426;-71
2024/01/12 06:43:07;;;;;;;27.27;15.75;;;-3.60;1.00;;;;;;5092191;28;20483;-72
2024/01/12 06:45:37;;;;;;;26.17;14.70;;;-3.60;1.00;;;;;;5101182;28;20728;-71
2024/01/12 06:48:04;;;;;;;23.45;14.32;;;-3.60;1.00;;;;;;5120975;27;20434;-72
2024/01/12 06:50:31;;;;;;;25.80;14.77;;;-3.60;1.00;;;;;;5112268;27;20775;-72
2024/01/12 06:53:00;;;;;;;25.70;14.00;;;-3.50;1.00;;;;;;5112880;28;20416;-72
2024/01/12 06:55:28;;;;;;;24.60;13.70;;;-3.40;1.00;;;;;;5111505;28;20447;-72
2024/01/12 06:57:56;;;;;;;21.60;12.27;;;-3.30;1.00;;;;;;5113405;28;20449;-71
2024/01/12 07:00:23;;;;;;;20.50;12.32;;;-3.30;1.00;;;;;;5105857;27;20768;-72
2024/01/12 07:02:50;;;;;;;24.70;13.83;;;-3.30;1.00;;;;;;5088926;28;20440;-71
2024/01/12 07:05:17;;;;;;;26.00;14.00;;;-3.30;99.90;;;;;;5103127;28;20465;-71
2024/01/12 07:07:44;;;;;;;23.50;12.52;;;-3.30;99.90;;;;;;5113639;28;20979;-70
2024/01/12 07:10:12;;;;;;;25.02;13.30;;;-3.30;99.90;;;;;;5112887;28;20753;-70
2024/01/12 07:12:39;;;;;;;22.13;13.13;;;-3.20;1.00;;;;;;5109958;28;20522;-70
2024/01/12 07:15:08;;;;;;;20.00;12.60;;;-3.30;99.90;;;;;;5112529;28;20911;-70
2024/01/12 07:17:35;;;;;;;22.05;13.27;;;-3.40;72.90;;;;;;5104478;28;20440;-71
2024/01/12 07:20:03;;;;;;;21.58;12.02;;;-3.40;1.90;;;;;;5109130;28;20428;-70
2024/01/12 07:22:31;;;;;;;22.10;12.30;;;-3.40;99.90;;;;;;5107104;28;20430;-71
2024/01/12 07:24:58;;;;;;;28.58;14.60;;;-3.20;1.00;;;;;;5112585;28;20493;-71
2024/01/12 07:27:25;;;;;;;25.58;15.50;;;-3.10;1.00;;;;;;5106958;28;20425;-71
2024/01/12 07:29:53;;;;;;;27.42;14.55;;;-3.10;99.90;;;;;;5110929;28;20431;-71
2024/01/12 07:32:21;;;;;;;22.85;14.38;;;-3.10;99.90;;;;;;5103812;28;20426;-72
2024/01/12 07:34:48;;;;;;;24.27;14.35;;;-3.20;99.90;;;;;;5113622;28;20481;-71
2024/01/12 07:37:16;;;;;;;22.73;12.73;;;-3.10;1.00;;;;;;5113792;28;20435;-71
2024/01/12 07:39:43;;;;;;;19.63;12.15;;;-3.10;1.00;;;;;;5106958;28;20715;-71
2024/01/12 07:42:10;;;;;;;24.77;13.50;;;-3.20;99.90;;;;;;5112900;28;20416;-72
2024/01/12 07:44:38;;;;;;;22.90;12.43;;;-3.10;1.00;;;;;;5114229;28;20475;-72
2024/01/12 07:47:05;;;;;;;23.30;13.00;;;-3.10;99.90;;;;;;5101566;28;20414;-71
2024/01/12 07:49:34;;;;;;;19.42;11.10;;;-3.10;99.90;;;;;;5110721;28;20420;-71
2024/01/12 07:52:01;;;;;;;18.65;12.40;;;-3.00;99.90;;;;;;5114514;28;20907;-71
2024/01/12 07:54:28;;;;;;;22.90;11.63;;;-3.00;99.90;;;;;;5109485;28;20485;-71
2024/01/12 07:56:55;;;;;;;22.13;12.80;;;-3.00;99.90;;;;;;5113325;28;20806;-71
2024/01/12 07:59:22;;;;;;;22.13;12.63;;;-2.90;99.90;;;;;;5112208;28;20454;-71
2024/01/12 08:01:53;;;;;;;23.80;12.90;;;-2.60;99.90;;;;;;5095725;28;20425;-71
2024/01/12 08:04:20;;;;;;;20.70;11.93;;;-2.40;99.90;;;;;;5108131;28;20428;-71
2024/01/12 08:06:48;;;;;;;23.38;12.32;;;-2.30;1.00;;;;;;5111494;28;20504;-71
2024/01/12 08:09:15;;;;;;;22.10;14.38;;;-2.20;1.00;;;;;;5113309;28;20425;-71
2024/01/12 08:11:43;;;;;;;25.02;14.50;;;-2.30;1.00;;;;;;5111665;28;20408;-71
2024/01/12 08:14:10;;;;;;;21.93;12.60;;;-2.40;1.00;;;;;;5112561;28;20507;-71
2024/01/12 08:16:37;;;;;;;21.10;12.52;;;-2.40;31.90;;;;;;5110332;28;20446;-72
2024/01/12 08:19:04;;;;;;;22.45;12.00;;;-2.40;1.00;;;;;;5112330;28;20420;-71
2024/01/12 08:21:31;;;;;;;22.00;12.10;;;-2.50;1.00;;;;;;5111759;28;20436;-70
2024/01/12 08:24:00;;;;;;;23.38;13.57;;;-2.50;1.00;;;;;;5094002;28;20463;-71
2024/01/12 08:26:27;;;;;;;22.83;13.23;;;-2.50;99.90;;;;;;5111226;28;20432;-71
2024/01/12 08:28:56;;;;;;;25.47;13.40;;;-2.70;1.00;;;;;;5113275;28;20491;-71
2024/01/12 08:31:23;;;;;;;23.63;11.77;;;-2.80;99.90;;;;;;5114074;28;20829;-71
2024/01/12 08:33:50;;;;;;;22.45;12.65;;;-2.80;1.00;;;;;;5108997;27;20429;-71
2024/01/12 08:36:17;;;;;;;27.75;15.02;;;-2.80;1.00;;;;;;5131893;27;20427;-71
2024/01/12 08:38:44;;;;;;;29.23;17.08;;;-2.80;99.90;;;;;;5106989;28;20420;-70
2024/01/12 08:41:12;;;;;;;33.80;18.60;;;-3.00;99.90;;;;;;5117453;28;20863;-70
2024/01/12 08:43:40;;;;;;;32.67;17.05;;;-3.10;99.90;;;;;;5114780;28;20538;-70
2024/01/12 08:46:08;;;;;;;27.13;17.20;;;-3.10;1.00;;;;;;5112657;28;20507;-70
2024/01/12 08:48:35;;;;;;;28.63;16.98;;;-3.10;1.00;;;;;;5115705;28;20682;-70
2024/01/12 08:51:05;;;;;;;35.42;18.35;;;-3.00;1.00;;;;;;5117701;27;20418;-70
2024/01/12 08:53:32;;;;;;;32.55;18.42;;;-2.70;1.00;;;;;;5111710;27;20437;-70
2024/01/12 08:55:59;;;;;;;33.47;20.77;;;-2.50;99.90;;;;;;5115897;28;20427;-70
2024/01/12 08:58:28;;;;;;;41.72;18.88;;;-2.50;1.00;;;;;;5114421;28;20420;-70
2024/01/12 09:00:55;;;;;;;29.73;18.60;;;-2.60;99.90;;;;;;5114506;28;20427;-70
2024/01/12 09:03:22;;;;;;;33.90;19.52;;;-2.70;99.90;;;;;;5116532;27;20432;-70
2024/01/12 09:05:49;;;;;;;33.43;18.80;;;-2.90;1.00;;;;;;5117717;28;20455;-69
2024/01/12 09:08:16;;;;;;;29.20;19.15;;;-3.00;83.60;;;;;;5117107;27;20415;-70
2024/01/12 09:10:44;;;;;;;37.60;21.10;;;-3.10;99.90;;;;;;5116146;28;20489;-72
2024/01/12 09:13:12;;;;;;;33.00;19.77;;;-3.00;1.00;;;;;;5115728;28;20714;-71
2024/01/12 09:15:40;;;;;;;36.58;19.98;;;-2.90;99.90;;;;;;5110842;28;21022;-71
2024/01/12 09:18:10;;;;;;;33.80;20.80;;;-2.90;99.90;;;;;;5112459;28;20464;-70
2024/01/12 09:20:37;;;;;;;34.38;18.80;;;-2.90;99.90;;;;;;5112807;28;20412;-70
2024/01/12 09:23:04;;;;;;;32.33;20.60;;;-2.70;99.90;;;;;;5115113;27;20412;-71
2024/01/12 09:25:32;;;;;;;30.45;19.05;;;-2.60;99.90;;;;;;5117211;27;20447;-70
2024/01/12 09:27:59;;;;;;;33.53;19.25;;;-2.50;7.50;;;;;;5103413;28;20442;-70
2024/01/12 09:30:26;;;;;;;35.83;20.88;;;-2.70;99.90;;;;;;5106660;28;20441;-71
2024/01/12 09:32:54;;;;;;;37.53;20.30;;;-2.60;76.60;;;;;;5115597;28;20861;-70
2024/01/12 09:35:21;;;;;;;34.92;19.50;;;-2.70;1.00;;;;;;5115965;28;20727;-70
2024/01/12 09:37:48;;;;;;;29.75;17.25;;;-2.90;1.00;;;;;;5111511;28;20443;-70
2024/01/12 09:40:15;;;;;;;32.47;18.48;;;-2.80;1.00;;;;;;5115032;28;20428;-71
2024/01/12 09:42:44;;;;;;;35.17;21.10;;;-2.50;1.00;;;;;;5114094;28;20435;-70
2024/01/12 09:45:14;;;;;;;33.88;19.90;;;-2.30;1.00;;;;;;5107440;28;20792;-70
2024/01/12 09:47:42;;;;;;;31.65;20.30;;;-2.20;1.00;;;;;;5110295;28;20412;-70
2024/01/12 09:50:11;;;;;;;31.08;19.92;;;-2.20;1.00;;;;;;5110906;28;20427;-70
2024/01/12 09:52:38;;;;;;;33.50;20.08;;;-2.10;1.00;;;;;;5107008;28;20473;-71
2024/01/12 09:55:07;;;;;;;29.95;17.75;;;-2.20;1.00;;;;;;5109922;28;20772;-70
2024/01/12 09:57:34;;;;;;;35.30;20.88;;;-2.10;1.00;;;;;;5115614;28;20428;-70
2024/01/12 10:00:05;;;;;;;34.03;20.45;;;-2.20;99.90;;;;;;5098090;28;20427;-70
2024/01/12 10:02:32;;;;;;;32.75;19.73;;;-2.30;6.90;;;;;;5114422;28;20430;-70
2024/01/12 10:04:59;;;;;;;31.90;17.52;;;-2.30;1.00;;;;;;5115720;28;20492;-70
2024/01/12 10:07:27;;;;;;;34.00;19.13;;;-2.10;1.00;;;;;;5114672;28;20424;-70
2024/01/12 10:09:54;;;;;;;32.55;20.60;;;-1.70;1.00;;;;;;5113940;28;20489;-70
2024/01/12 10:12:22;;;;;;;32.75;18.58;;;-1.70;99.90;;;;;;5111965;28;20412;-71
2024/01/12 10:15:00;;;;;;;30.20;18.55;;;-1.60;1.00;;;;;;5107781;28;20430;-71
2024/01/12 10:17:27;;;;;;;31.35;20.08;;;-1.30;90.70;;;;;;5108602;28;20423;-70
2024/01/12 10:19:55;;;;;;;37.28;20.35;;;-1.00;1.00;;;;;;5112017;28;20421;-70
2024/01/12 10:22:22;;;;;;;32.58;19.73;;;-0.80;1.00;;;;;;5107390;28;20457;-71
2024/01/12 10:24:58;;;;;;;30.40;18.53;;;-0.70;1.00;;;;;;5102511;28;20517;-71
2024/01/12 10:27:26;;;;;;;35.83;20.83;;;-0.70;1.00;;;;;;5111339;28;20795;-72
2024/01/12 10:29:53;;;;;;;30.08;18.77;;;-0.60;1.00;;;;;;5110061;28;20438;-71
2024/01/12 10:32:20;;;;;;;34.22;20.70;;;-0.50;99.90;;;;;;5109986;28;20439;-71
2024/01/12 10:34:48;;;;;;;31.85;20.33;;;-0.60;99.90;;;;;;5111010;28;20450;-71
2024/01/12 10:37:16;;;;;;;32.70;20.30;;;-0.50;1.00;;;;;;5108732;28;20506;-71
2024/01/12 10:39:46;;;;;;;31.45;19.52;;;-0.40;1.00;;;;;;5111929;28;20850;-71
2024/01/12 10:42:16;;;;;;;31.10;18.95;;;-0.30;99.90;;;;;;5112556;28;20420;-71
2024/01/12 10:44:44;;;;;;;33.13;20.13;;;-0.40;99.90;;;;;;5112738;28;20428;-70
2024/01/12 10:47:16;;;;;;;33.03;19.90;;;-0.30;1.00;;;;;;5113274;28;20556;-70
2024/01/12 10:49:49;;;;;;;32.13;20.20;;;-0.20;1.00;;;;;;5113986;28;20515;-71
2024/01/12 10:52:26;;;;;;;29.50;18.25;;;-0.20;4.30;;;;;;5114800;28;20506;-71
2024/01/12 10:55:00;;;;;;;29.88;19.88;;;-0.40;99.90;;;;;;5109195;28;20436;-71
2024/01/12 10:57:32;;;;;;;32.42;20.48;;;-0.40;1.00;;;;;;5101405;28;20431;-70
2024/01/12 11:00:00;;;;;;;32.75;18.60;;;-0.60;1.00;;;;;;5106629;28;20518;-70
2024/01/12 11:02:27;;;;;;;33.72;18.80;;;-0.60;99.90;;;;;;5106756;28;20442;-70
2024/01/12 11:04:56;;;;;;;32.03;18.90;;;-0.50;77.40;;;;;;5111221;28;20440;-71
2024/01/12 11:07:23;;;;;;;30.63;19.90;;;-0.40;1.00;;;;;;5099281;28;20437;-70
2024/01/12 11:09:51;;;;;;;27.60;18.65;;;-0.40;1.00;;;;;;5114447;28;20841;-70
2024/01/12 11:12:27;;;;;;;32.25;19.42;;;-0.30;1.00;;;;;;5105524;28;20486;-71
2024/01/12 11:14:55;;;;;;;31.88;19.00;;;-0.40;99.90;;;;;;5113678;28;20437;-70
2024/01/12 11:17:28;;;;;;;35.63;17.88;;;-0.40;1.00;;;;;;5112497;28;20424;-70
2024/01/12 11:20:09;;;;;;;28.40;17.23;;;-0.60;99.90;;;;;;5110928;28;20527;-70
2024/01/12 11:22:37;;;;;;;28.63;17.40;;;-0.60;1.00;;;;;;5108514;28;20447;-70
2024/01/12 11:25:06;;;;;;;29.83;17.27;;;-0.50;1.00;;;;;;5112820;28;20444;-70
2024/01/12 11:27:33;;;;;;;29.88;17.00;;;-0.30;1.00;;;;;;5104143;28;20779;-69
2024/01/12 11:30:03;;;;;;;24.45;16.08;;;-0.30;99.90;;;;;;5105257;28;20424;-69
2024/01/12 11:32:31;;;;;;;27.02;15.95;;;-0.20;99.90;;;;;;5104383;28;20464;-70
2024/01/12 11:35:12;;;;;;;24.77;16.27;;;-0.10;1.00;;;;;;5110009;28;20431;-70
2024/01/12 11:37:39;;;;;;;27.77;17.63;;;0.00;99.90;;;;;;5107644;28;20849;-71
2024/01/12 11:40:09;;;;;;;27.98;17.35;;;0.00;1.00;;;;;;5110230;28;20420;-71
2024/01/12 11:42:38;;;;;;;29.67;16.88;;;0.00;13.10;;;;;;5110988;28;20428;-71
2024/01/12 11:45:09;;;;;;;27.30;16.50;;;-0.10;1.00;;;;;;5103785;28;20534;-71
2024/01/12 11:47:39;;;;;;;28.48;17.17;;;0.00;99.90;;;;;;5099662;28;20473;-71
2024/01/12 11:50:08;;;;;;;29.25;17.40;;;0.00;1.00;;;;;;5111945;28;20413;-71
2024/01/12 11:52:36;;;;;;;27.97;16.70;;;-0.20;1.00;;;;;;5108184;28;20902;-71
2024/01/12 11:55:04;;;;;;;27.33;17.00;;;0.00;98.70;;;;;;5105148;28;20424;-71
2024/01/12 11:57:31;;;;;;;25.90;16.27;;;0.20;97.80;;;;;;5106198;28;20554;-71
2024/01/12 11:59:58;;;;;;;28.20;17.23;;;0.10;1.00;;;;;;5107916;28;20493;-71
2024/01/12 12:02:26;;;;;;;27.20;16.60;;;-0.10;1.00;;;;;;5106289;28;20427;-71
2024/01/12 12:04:54;;;;;;;26.50;16.33;;;0.10;1.00;;;;;;5107829;28;20906;-71
2024/01/12 12:07:25;;;;;;;31.10;18.17;;;0.20;1.00;;;;;;5116312;28;20428;-70
2024/01/12 12:09:53;;;;;;;21.73;16.27;;;0.40;1.00;;;;;;5109604;28;20498;-70
2024/01/12 12:12:20;;;;;;;27.35;19.08;;;0.40;1.00;;;;;;5110296;28;20465;-71
2024/01/12 12:14:57;;;;;;;29.67;17.92;;;0.40;1.00;;;;;;5105138;28;20809;-71
2024/01/12 12:17:28;;;;;;;29.73;17.67;;;0.30;1.00;;;;;;5111983;28;20511;-71
2024/01/12 12:19:55;;;;;;;30.10;18.73;;;0.30;42.20;;;;;;5112002;28;20776;-73
2024/01/12 12:22:23;;;;;;;27.23;19.05;;;0.50;99.90;;;;;;5109176;28;20527;-69
2024/01/12 12:24:50;;;;;;;30.02;17.35;;;0.70;1.00;;;;;;5111558;28;20431;-70
2024/01/12 12:27:18;;;;;;;28.02;18.75;;;0.80;1.00;;;;;;5107718;28;20439;-73
2024/01/12 12:29:45;;;;;;;28.70;19.17;;;0.70;1.00;;;;;;5112679;28;20416;-72
2024/01/12 12:32:13;;;;;;;30.20;19.17;;;0.50;1.00;;;;;;5108233;28;20432;-72
2024/01/12 12:34:43;;;;;;;29.35;18.98;;;0.60;1.00;;;;;;5111055;28;20428;-71
2024/01/12 12:37:13;;;;;;;28.02;18.10;;;0.40;1.00;;;;;;5111929;28;20471;-72
2024/01/12 12:39:40;;;;;;;32.50;18.92;;;0.40;1.00;;;;;;5111237;28;20756;-71